This is the latest recevied weather packets stored in our database for station/object DL2BWO-13. If no packets are shown the sender has not sent any weather packets the latest 10 day(s).
| Time | Temp. | Humidity | Pressure | Rain* | Wind** | Luminosity | Snow |
|---|---|---|---|---|---|---|---|
| 1777657269 | 24.44° C | 46% | 752.8 hPa | 0 mm | - | - | - |
| 1777656333 | 26.11° C | 47% | 755.2 hPa | 0 mm | - | - | - |
| 1777655397 | 26.67° C | 47% | 755.6 hPa | 0 mm | - | - | - |
| 1777654461 | 26.11° C | 45% | 754.8 hPa | 0 mm | - | - | - |
| 1777652589 | 26.67° C | 42% | 755.7 hPa | 0 mm | - | - | - |
| 1777650717 | 26.67° C | 43% | 755.9 hPa | 0 mm | - | - | - |
| 1777647910 | 27.78° C | 41% | 756.7 hPa | 0 mm | - | - | - |
| 1777646974 | 27.78° C | 41% | 757 hPa | 0 mm | - | - | - |
| 1777645102 | 26.67° C | 42% | 756 hPa | 0 mm | - | - | - |
| 1777644166 | 28.33° C | 41% | 757.3 hPa | 0 mm | - | - | - |
| 1777643230 | 28.33° C | 41% | 757.5 hPa | 0 mm | - | - | - |
| 1777642294 | 27.22° C | 41% | 756.7 hPa | 0 mm | - | - | - |
| 1777641358 | 26.67° C | 42% | 755.6 hPa | 0 mm | - | - | - |
| 1777640422 | 28.33° C | 41% | 757.7 hPa | 0 mm | - | - | - |
| 1777639486 | 27.22° C | 41% | 756.6 hPa | 0 mm | - | - | - |
| 1777638550 | 27.22° C | 42% | 756.5 hPa | 0 mm | - | - | - |
| 1777637614 | 27.78° C | 40% | 757 hPa | 0 mm | - | - | - |
| 1777635742 | 26.67° C | 42% | 755.9 hPa | 0 mm | - | - | - |
| 1777634806 | 25° C | 45% | 754 hPa | 0 mm | - | - | - |
| 1777633870 | 25° C | 46% | 753.6 hPa | 0 mm | - | - | - |
| 1777632934 | 24.44° C | 46% | 753.2 hPa | 0 mm | - | - | - |
| 1777631998 | 23.89° C | 47% | 752.6 hPa | 0 mm | - | - | - |
| 1777631062 | 23.89° C | 47% | 752.7 hPa | 0 mm | - | - | - |
| 1777630126 | 22.78° C | 48% | 751.3 hPa | 0 mm | - | - | - |
| 1777629190 | 22.22° C | 48% | 750.5 hPa | 0 mm | - | - | - |
* Rain latest hour (hover to see other rain measurements)
** Current wind speed in m/s (hover to see current wind gust speed)